In Rescue
 
Open Full Screen Window  High Contrast Mode
Wind Gusting 00 knots
06
September 19, 2019 5:19 PM EDT
Weather Information
Wind Direction
  150 °
Wind Speed
  06 kt (7 mph)
Wind Gust
  00 kt (0 mph)
Altimeter
30.11 in
Visibility
10 SM
Temperature
29° C
84° F
Dewpoint
17° C
63° F
Humidity
48%
1hr Rain Fall
00.00 in.
24hr Rain Fall
00.00 in.
Sky Condition
Scattered @ 7,500 ft
Scattered @ 3,800 ft
VFR

METAR KI19 192119Z AUTO 15006KT 10SM SCT038 SCT075 29/17 A3011 RMK AO2 T02850172

FAA Disclaimer: The data displayed is for advisory purposes only and is not to be used for flight planning or operations.